Time;durP1;ratioP1;P1;durP2;ratioP2;P2;SDS_P1;SDS_P2;PMS_P1;PMS_P2;Temp;Humidity;BMP_temperature;BMP_pressure;BME280_temperature;BME280_humidity;BME280_pressure;Samples;Min_cycle;Max_cycle;Signal;HPM_P1;HPM_P2
2023/06/09 00:02:13;;;;;;;34.93;17.13;;;20.00;65.60;;;;;;4919327;29;20450;-85
2023/06/09 00:04:41;;;;;;;57.07;17.30;;;20.20;64.80;;;;;;4917279;29;20544;-84
2023/06/09 00:07:08;;;;;;;68.80;16.87;;;20.30;64.60;;;;;;4918991;29;20478;-85
2023/06/09 00:09:35;;;;;;;53.20;18.73;;;20.40;64.30;;;;;;4918368;29;21169;-85
2023/06/09 00:12:04;;;;;;;40.17;15.37;;;20.50;63.70;;;;;;4916768;29;20852;-84
2023/06/09 00:14:31;;;;;;;78.13;19.07;;;20.60;63.60;;;;;;4930393;29;20450;-85
2023/06/09 00:16:59;;;;;;;42.50;16.70;;;20.60;63.30;;;;;;4932818;29;20513;-85
2023/06/09 00:19:27;;;;;;;28.30;16.30;;;20.60;63.10;;;;;;4918601;29;20461;-86
2023/06/09 00:21:54;;;;;;;45.17;17.37;;;20.60;63.20;;;;;;4915532;29;20988;-85
2023/06/09 00:24:22;;;;;;;48.63;17.50;;;20.50;63.40;;;;;;4937599;29;20460;-84
2023/06/09 00:26:51;;;;;;;48.80;16.97;;;20.30;63.60;;;;;;4936161;28;20514;-83
2023/06/09 00:29:22;;;;;;;21.33;16.23;;;20.20;63.70;;;;;;4906959;29;20489;-85
2023/06/09 00:31:49;;;;;;;114.70;20.13;;;20.30;63.70;;;;;;4904791;29;20462;-85
2023/06/09 00:34:16;;;;;;;38.70;16.70;;;20.40;63.10;;;;;;4910004;29;20446;-85
2023/06/09 00:36:43;;;;;;;24.07;15.43;;;20.50;63.50;;;;;;4931235;29;20866;-85
2023/06/09 00:39:10;;;;;;;29.73;15.20;;;20.60;63.50;;;;;;4918430;29;20442;-85
2023/06/09 00:41:37;;;;;;;19.27;15.40;;;20.50;63.10;;;;;;4937002;29;20857;-85
2023/06/09 00:44:05;;;;;;;23.77;14.93;;;20.50;63.20;;;;;;4934971;29;21141;-84
2023/06/09 00:46:34;;;;;;;39.70;16.00;;;20.60;63.40;;;;;;4919953;28;20447;-84
2023/06/09 00:49:01;;;;;;;22.03;15.13;;;20.60;63.10;;;;;;4908942;29;20454;-85
2023/06/09 00:51:29;;;;;;;28.50;16.10;;;20.60;63.00;;;;;;4910178;29;20457;-83
2023/06/09 00:53:56;;;;;;;38.83;15.50;;;20.70;62.60;;;;;;4906919;29;20458;-84
2023/06/09 00:56:24;;;;;;;42.07;15.43;;;20.80;62.10;;;;;;4917791;29;20454;-85
2023/06/09 00:58:51;;;;;;;30.17;15.53;;;20.70;62.20;;;;;;4934532;29;21232;-85
2023/06/09 01:01:19;;;;;;;22.20;15.83;;;20.70;62.20;;;;;;4905341;29;20465;-85
2023/06/09 01:03:48;;;;;;;23.73;15.63;;;20.70;62.20;;;;;;4925612;29;20451;-84
2023/06/09 01:06:26;;;;;;;20.00;15.67;;;20.70;62.30;;;;;;4925970;29;20468;-85
2023/06/09 01:08:58;;;;;;;21.77;14.30;;;20.70;62.30;;;;;;4937014;29;20481;-85
2023/06/09 01:11:31;;;;;;;21.20;14.43;;;20.70;62.10;;;;;;4905786;29;20445;-86
2023/06/09 01:14:06;;;;;;;17.30;12.70;;;20.70;61.50;;;;;;4921270;29;21506;-85
2023/06/09 01:16:42;;;;;;;17.90;14.00;;;20.70;61.70;;;;;;4919682;28;20457;-85
2023/06/09 01:19:26;;;;;;;19.10;14.70;;;20.60;61.40;;;;;;4933271;29;20462;-85
2023/06/09 01:21:57;;;;;;;22.80;14.50;;;20.60;60.70;;;;;;4903818;29;20975;-85
2023/06/09 01:24:35;;;;;;;16.50;13.00;;;20.20;60.80;;;;;;4925041;29;20462;-85
2023/06/09 01:27:05;;;;;;;21.67;14.50;;;19.60;62.40;;;;;;4933643;29;22212;-83
2023/06/09 01:29:33;;;;;;;21.73;15.30;;;19.30;64.20;;;;;;4926155;29;20453;-85
2023/06/09 01:32:02;;;;;;;25.97;17.13;;;19.50;64.20;;;;;;4923890;29;20510;-85
2023/06/09 01:34:30;;;;;;;43.87;17.13;;;19.80;64.10;;;;;;4924868;29;20455;-84
2023/06/09 01:36:57;;;;;;;69.23;18.27;;;20.00;63.60;;;;;;4906487;29;20483;-85
2023/06/09 01:39:26;;;;;;;21.87;16.23;;;20.10;63.20;;;;;;4922294;29;20490;-85
2023/06/09 01:41:52;;;;;;;22.90;16.10;;;20.20;62.80;;;;;;4920575;29;20473;-85
2023/06/09 01:44:21;;;;;;;25.90;17.60;;;20.30;63.00;;;;;;4916795;29;20454;-85
2023/06/09 01:46:48;;;;;;;24.33;16.70;;;20.30;62.30;;;;;;4922850;29;20874;-86
2023/06/09 01:49:21;;;;;;;50.97;16.93;;;20.30;62.40;;;;;;4917093;29;20453;-85
2023/06/09 01:51:52;;;;;;;26.83;16.73;;;20.30;62.30;;;;;;4908608;29;20451;-85
2023/06/09 01:54:24;;;;;;;194.57;19.20;;;20.40;62.30;;;;;;4925238;29;20834;-85
2023/06/09 01:56:58;;;;;;;45.70;17.00;;;20.10;61.70;;;;;;4933681;28;21228;-85
2023/06/09 01:59:34;;;;;;;51.60;15.70;;;20.10;62.30;;;;;;4908866;29;20454;-85
2023/06/09 02:02:04;;;;;;;30.10;14.77;;;20.10;62.40;;;;;;4917087;29;20482;-85
2023/06/09 02:04:33;;;;;;;29.83;16.00;;;20.10;62.40;;;;;;4908971;29;20463;-85
2023/06/09 02:07:00;;;;;;;23.40;13.70;;;20.10;62.40;;;;;;4940189;28;20470;-85
2023/06/09 02:09:28;;;;;;;22.13;15.53;;;20.20;61.90;;;;;;4914716;29;20467;-85
2023/06/09 02:11:55;;;;;;;24.43;13.83;;;20.20;61.70;;;;;;4931536;29;20506;-85
2023/06/09 02:14:22;;;;;;;21.77;15.17;;;20.10;62.30;;;;;;4919762;29;20530;-85
2023/06/09 02:16:53;;;;;;;21.20;15.27;;;20.10;62.00;;;;;;4908367;29;20992;-85
2023/06/09 02:19:20;;;;;;;24.20;16.30;;;20.20;61.90;;;;;;4908077;29;20478;-85
2023/06/09 02:21:47;;;;;;;23.40;15.17;;;20.20;61.70;;;;;;4925783;29;20550;-83
2023/06/09 02:24:15;;;;;;;21.80;16.57;;;20.10;61.40;;;;;;4916761;29;20458;-85
2023/06/09 02:26:42;;;;;;;32.57;16.43;;;20.10;62.00;;;;;;4903616;29;20526;-85
2023/06/09 02:29:09;;;;;;;22.50;16.87;;;20.10;62.40;;;;;;4915931;29;20486;-85
2023/06/09 02:31:36;;;;;;;24.33;16.93;;;20.20;62.40;;;;;;4904643;29;20465;-84
2023/06/09 02:34:04;;;;;;;20.57;15.10;;;20.20;62.10;;;;;;4924026;29;20477;-85
2023/06/09 02:36:31;;;;;;;23.10;15.77;;;20.20;62.30;;;;;;4917410;29;20451;-85
2023/06/09 02:38:58;;;;;;;23.13;16.27;;;20.20;62.20;;;;;;4939218;29;20454;-85
2023/06/09 02:41:26;;;;;;;22.03;16.13;;;20.20;62.40;;;;;;4917483;29;20470;-85
2023/06/09 02:43:53;;;;;;;21.97;16.50;;;20.20;62.30;;;;;;4915024;29;20505;-85
2023/06/09 02:46:22;;;;;;;21.67;14.60;;;20.20;62.10;;;;;;4916563;29;20459;-85
2023/06/09 02:48:49;;;;;;;24.23;14.83;;;20.10;61.70;;;;;;4915484;29;20479;-83
2023/06/09 02:51:18;;;;;;;24.20;15.20;;;19.80;61.50;;;;;;4908712;29;20473;-85
2023/06/09 02:53:45;;;;;;;22.30;14.67;;;19.60;62.50;;;;;;4908690;29;20493;-86
2023/06/09 02:56:13;;;;;;;23.27;15.23;;;19.70;62.50;;;;;;4931588;29;21019;-84
2023/06/09 02:58:48;;;;;;;21.17;14.17;;;19.70;62.00;;;;;;4915224;29;20441;-84
2023/06/09 03:01:17;;;;;;;21.10;14.57;;;19.40;62.20;;;;;;4904702;29;20983;-85
2023/06/09 03:03:45;;;;;;;20.47;14.57;;;19.40;62.70;;;;;;4907554;29;20462;-85
2023/06/09 03:06:14;;;;;;;19.43;13.30;;;19.60;62.40;;;;;;4916765;29;20455;-85
2023/06/09 03:08:42;;;;;;;23.03;14.50;;;19.40;61.60;;;;;;4922378;29;20490;-83
2023/06/09 03:11:10;;;;;;;23.50;15.07;;;18.90;63.40;;;;;;4931696;29;21209;-85
2023/06/09 03:13:37;;;;;;;23.73;16.43;;;18.70;64.70;;;;;;4930665;29;20459;-85
2023/06/09 03:16:04;;;;;;;23.57;15.90;;;18.90;65.10;;;;;;4929759;29;21063;-83
2023/06/09 03:18:32;;;;;;;23.30;15.50;;;19.20;64.60;;;;;;4932068;28;20471;-85
2023/06/09 03:21:04;;;;;;;26.67;18.23;;;19.50;64.10;;;;;;4918177;29;20458;-85
2023/06/09 03:23:32;;;;;;;24.70;16.43;;;19.60;63.50;;;;;;4920437;29;20525;-85
2023/06/09 03:26:02;;;;;;;79.07;18.73;;;19.80;63.40;;;;;;4932815;29;20456;-85
2023/06/09 03:28:31;;;;;;;25.30;16.77;;;19.80;62.00;;;;;;4922761;29;20482;-85
2023/06/09 03:30:58;;;;;;;28.03;14.97;;;19.70;62.70;;;;;;4910973;29;20451;-84
2023/06/09 03:33:25;;;;;;;23.60;16.03;;;19.50;62.80;;;;;;4914869;29;20527;-85
2023/06/09 03:35:54;;;;;;;29.70;15.80;;;19.60;63.40;;;;;;4917181;29;20894;-85
2023/06/09 03:38:23;;;;;;;20.53;13.40;;;19.70;63.20;;;;;;4893149;29;20558;-85
2023/06/09 03:40:51;;;;;;;22.67;14.43;;;19.80;63.20;;;;;;4922581;29;20459;-85
2023/06/09 03:43:22;;;;;;;41.90;14.50;;;19.90;62.60;;;;;;4913526;29;20542;-85
2023/06/09 03:45:49;;;;;;;49.53;14.70;;;19.30;62.10;;;;;;4896507;29;20463;-83
2023/06/09 03:48:16;;;;;;;34.73;15.00;;;18.50;63.80;;;;;;4912789;29;20479;-85
2023/06/09 03:50:44;;;;;;;32.60;15.80;;;18.30;65.00;;;;;;4925361;29;20461;-85
2023/06/09 03:53:12;;;;;;;31.43;15.20;;;18.40;64.90;;;;;;4917036;29;20458;-85
2023/06/09 03:55:39;;;;;;;63.70;17.87;;;18.60;65.30;;;;;;4906888;29;20851;-85
2023/06/09 03:58:10;;;;;;;58.00;16.53;;;18.80;65.60;;;;;;4916051;29;20957;-85
2023/06/09 04:00:39;;;;;;;30.23;16.57;;;19.00;65.00;;;;;;4926162;29;20465;-85
2023/06/09 04:03:08;;;;;;;26.40;14.80;;;19.20;64.40;;;;;;4923297;29;20459;-84
2023/06/09 04:05:35;;;;;;;63.20;16.20;;;19.40;63.80;;;;;;4938695;29;20465;-85
2023/06/09 04:08:02;;;;;;;64.17;18.03;;;19.50;62.90;;;;;;4901898;29;20478;-85
2023/06/09 04:10:29;;;;;;;144.83;19.30;;;19.50;62.40;;;;;;4933267;29;20455;-85
2023/06/09 04:12:56;;;;;;;69.07;16.23;;;19.50;62.20;;;;;;4921557;29;20447;-84
2023/06/09 04:15:24;;;;;;;181.17;21.10;;;19.50;62.90;;;;;;4914109;29;20469;-85
2023/06/09 04:17:54;;;;;;;55.63;15.73;;;19.30;62.70;;;;;;4898189;29;20475;-84
2023/06/09 04:20:26;;;;;;;96.87;17.87;;;18.90;64.50;;;;;;4907247;29;20751;-85
2023/06/09 04:22:55;;;;;;;61.03;16.43;;;18.90;63.60;;;;;;4914938;29;20470;-84
2023/06/09 04:25:29;;;;;;;39.87;16.70;;;19.00;64.90;;;;;;4907159;29;21039;-84
2023/06/09 04:28:03;;;;;;;93.23;17.97;;;19.10;64.40;;;;;;4928961;29;20487;-85
2023/06/09 04:30:34;;;;;;;20.10;15.43;;;19.20;64.10;;;;;;4922610;29;20502;-84
2023/06/09 04:33:03;;;;;;;26.40;16.73;;;19.10;64.30;;;;;;4917388;29;20843;-85
2023/06/09 04:35:31;;;;;;;85.70;16.50;;;19.20;64.10;;;;;;4915876;29;20464;-85
2023/06/09 04:38:00;;;;;;;28.23;14.90;;;19.20;63.40;;;;;;4898049;29;20526;-85
2023/06/09 04:40:29;;;;;;;127.37;17.37;;;19.30;63.90;;;;;;4922992;29;20540;-85
2023/06/09 04:42:59;;;;;;;21.67;14.40;;;19.30;62.80;;;;;;4922186;29;20542;-84
2023/06/09 04:45:28;;;;;;;60.67;14.90;;;19.20;64.10;;;;;;4913139;29;20978;-85
2023/06/09 04:48:00;;;;;;;28.13;14.20;;;19.30;63.80;;;;;;4897430;29;20561;-85
2023/06/09 04:50:32;;;;;;;51.47;15.40;;;19.40;64.00;;;;;;4906579;29;20491;-84
2023/06/09 04:53:03;;;;;;;31.63;15.90;;;19.40;62.30;;;;;;4912963;29;20463;-85
2023/06/09 04:55:31;;;;;;;25.47;14.70;;;19.30;63.40;;;;;;4906299;29;20805;-85
2023/06/09 04:57:58;;;;;;;20.50;14.40;;;19.40;63.60;;;;;;4920466;29;20478;-84
2023/06/09 05:00:28;;;;;;;20.30;15.50;;;19.60;63.80;;;;;;4903009;29;21034;-85
2023/06/09 05:02:59;;;;;;;22.70;15.17;;;19.70;63.40;;;;;;4906303;29;20450;-85
2023/06/09 05:05:26;;;;;;;19.17;14.07;;;19.70;62.90;;;;;;4908628;29;20442;-85
2023/06/09 05:07:55;;;;;;;18.57;14.77;;;19.40;63.80;;;;;;4938846;28;20545;-85
2023/06/09 05:10:24;;;;;;;24.50;15.30;;;19.50;64.20;;;;;;4919062;29;20447;-84
2023/06/09 05:12:51;;;;;;;21.67;14.97;;;19.70;63.90;;;;;;4910259;29;20451;-84
2023/06/09 05:15:18;;;;;;;21.53;17.30;;;19.90;63.50;;;;;;4913978;29;20510;-84
2023/06/09 05:17:49;;;;;;;22.43;13.63;;;20.00;62.80;;;;;;4933898;28;21012;-85
2023/06/09 05:20:16;;;;;;;19.67;15.77;;;20.10;62.40;;;;;;4912579;29;20453;-85
2023/06/09 05:22:43;;;;;;;24.07;17.27;;;20.00;62.10;;;;;;4904125;29;20536;-84
2023/06/09 05:25:14;;;;;;;25.90;14.03;;;19.90;62.90;;;;;;4922060;29;20534;-85
2023/06/09 05:27:41;;;;;;;22.30;15.77;;;19.80;63.80;;;;;;4917172;29;20528;-84
2023/06/09 05:30:09;;;;;;;20.47;15.87;;;19.70;63.90;;;;;;4925685;29;20576;-85
2023/06/09 05:32:36;;;;;;;21.80;15.57;;;19.80;63.70;;;;;;4902611;29;20815;-85
2023/06/09 05:35:05;;;;;;;21.60;16.23;;;19.80;63.80;;;;;;4925273;29;21237;-84
2023/06/09 05:37:33;;;;;;;20.80;15.23;;;19.70;64.30;;;;;;4919682;29;20471;-84
2023/06/09 05:40:00;;;;;;;20.80;15.30;;;19.70;64.70;;;;;;4919031;29;20481;-85
2023/06/09 05:42:28;;;;;;;21.00;15.97;;;19.60;64.70;;;;;;4920671;29;20984;-85
2023/06/09 05:44:55;;;;;;;20.00;15.33;;;19.70;65.20;;;;;;4909141;29;20510;-85
2023/06/09 05:47:22;;;;;;;19.43;15.57;;;19.90;65.40;;;;;;4942221;28;20496;-85
2023/06/09 05:49:49;;;;;;;23.20;16.90;;;19.90;65.10;;;;;;4904332;29;20830;-85
2023/06/09 05:52:16;;;;;;;20.93;16.50;;;19.90;65.60;;;;;;4921666;29;20529;-84
2023/06/09 05:54:48;;;;;;;23.40;15.87;;;19.90;66.00;;;;;;4905080;29;20534;-85
2023/06/09 05:57:15;;;;;;;22.93;16.60;;;20.10;65.30;;;;;;4926728;29;20470;-84
2023/06/09 05:59:44;;;;;;;19.17;15.37;;;20.40;65.00;;;;;;4931452;29;20442;-85
2023/06/09 06:02:12;;;;;;;21.83;16.00;;;20.50;64.50;;;;;;4935290;29;20458;-85
2023/06/09 06:04:39;;;;;;;18.10;14.97;;;20.70;63.60;;;;;;4924720;29;20558;-85
2023/06/09 06:07:06;;;;;;;17.80;14.40;;;21.00;62.90;;;;;;4920354;29;20488;-85
2023/06/09 06:09:33;;;;;;;18.57;14.93;;;20.90;62.80;;;;;;4904524;29;20498;-85
2023/06/09 06:12:00;;;;;;;20.67;14.27;;;20.80;63.10;;;;;;4933955;29;20459;-85
2023/06/09 06:14:27;;;;;;;19.93;14.90;;;20.70;63.20;;;;;;4922981;29;20454;-85
2023/06/09 06:16:55;;;;;;;24.90;15.27;;;20.60;63.70;;;;;;4921617;29;20867;-85
2023/06/09 06:19:22;;;;;;;18.00;14.20;;;20.90;64.00;;;;;;4902311;29;20463;-85
2023/06/09 06:21:49;;;;;;;21.87;14.27;;;21.20;63.50;;;;;;4927768;29;20462;-85
2023/06/09 06:24:17;;;;;;;18.23;14.53;;;21.30;62.80;;;;;;4922369;29;20451;-85
2023/06/09 06:26:43;;;;;;;18.20;16.13;;;21.30;63.20;;;;;;4927158;29;21573;-85
2023/06/09 06:29:10;;;;;;;20.83;15.70;;;21.50;63.20;;;;;;4931293;29;20479;-85
2023/06/09 06:31:37;;;;;;;19.83;16.10;;;21.80;62.70;;;;;;4934378;29;20454;-85
2023/06/09 06:34:06;;;;;;;18.80;13.13;;;22.00;61.70;;;;;;4924491;29;20451;-84
2023/06/09 06:36:33;;;;;;;19.93;14.57;;;22.20;60.10;;;;;;4919231;29;20878;-85
2023/06/09 06:39:00;;;;;;;20.57;13.93;;;22.10;61.00;;;;;;4932988;29;20449;-84
2023/06/09 06:41:27;;;;;;;17.20;13.87;;;21.90;61.70;;;;;;4926281;29;20456;-84
2023/06/09 06:43:54;;;;;;;19.53;15.17;;;21.90;62.10;;;;;;4917484;29;20505;-85
2023/06/09 06:46:21;;;;;;;26.63;14.20;;;22.00;62.00;;;;;;4920240;29;20465;-85
2023/06/09 06:48:48;;;;;;;18.50;14.10;;;21.90;62.10;;;;;;4920561;29;20470;-84
2023/06/09 06:51:17;;;;;;;18.83;14.90;;;21.90;62.00;;;;;;4905671;29;20483;-84
2023/06/09 06:53:44;;;;;;;18.83;14.67;;;22.10;62.40;;;;;;4935219;29;20471;-85
2023/06/09 06:56:11;;;;;;;15.53;13.30;;;22.30;61.30;;;;;;4937152;29;20465;-84
2023/06/09 06:58:38;;;;;;;16.50;13.47;;;22.30;62.10;;;;;;4907686;29;21147;-85
2023/06/09 07:01:05;;;;;;;16.90;14.93;;;22.30;62.00;;;;;;4901596;29;20942;-84
2023/06/09 07:03:33;;;;;;;18.33;14.53;;;22.40;62.60;;;;;;4932455;29;20530;-85
2023/06/09 07:06:01;;;;;;;18.33;13.80;;;22.60;62.60;;;;;;4934376;29;20490;-85
2023/06/09 07:08:29;;;;;;;17.10;14.43;;;22.70;61.30;;;;;;4941564;28;20475;-83
2023/06/09 07:10:56;;;;;;;16.70;13.33;;;22.60;62.50;;;;;;4919732;29;20547;-83
2023/06/09 07:13:23;;;;;;;17.10;15.30;;;22.70;62.40;;;;;;4915609;29;20893;-84
2023/06/09 07:15:50;;;;;;;17.13;14.73;;;23.10;62.30;;;;;;4924771;29;20481;-84
2023/06/09 07:18:17;;;;;;;15.73;14.13;;;23.40;61.20;;;;;;4902964;29;20516;-85
2023/06/09 07:20:44;;;;;;;14.83;12.80;;;23.70;60.60;;;;;;4908177;29;20462;-85
2023/06/09 07:23:11;;;;;;;14.80;13.30;;;23.90;59.60;;;;;;4931048;29;21028;-84
2023/06/09 07:25:40;;;;;;;15.83;14.07;;;23.80;60.00;;;;;;4930144;29;20489;-84
2023/06/09 07:28:07;;;;;;;20.50;14.27;;;23.90;60.60;;;;;;4917501;29;21367;-84
2023/06/09 07:30:34;;;;;;;17.93;14.73;;;24.20;60.50;;;;;;4932217;29;20475;-84
2023/06/09 07:33:01;;;;;;;19.13;13.57;;;24.20;59.90;;;;;;4913821;29;21020;-85
2023/06/09 07:35:29;;;;;;;14.93;13.33;;;24.30;59.90;;;;;;4915697;29;20467;-82
2023/06/09 07:37:56;;;;;;;18.10;13.33;;;24.20;59.70;;;;;;4916294;29;20491;-83
2023/06/09 07:40:23;;;;;;;14.97;13.33;;;24.20;60.00;;;;;;4915978;29;20459;-83
2023/06/09 07:42:51;;;;;;;14.30;12.80;;;24.40;58.70;;;;;;4938524;28;20458;-84
2023/06/09 07:45:19;;;;;;;14.90;13.40;;;24.60;59.50;;;;;;4912776;29;20459;-84
2023/06/09 07:47:46;;;;;;;15.70;14.03;;;24.80;59.90;;;;;;4921621;29;20479;-84
2023/06/09 07:50:14;;;;;;;15.03;13.17;;;24.80;59.90;;;;;;4921033;29;21983;-85
2023/06/09 07:52:41;;;;;;;16.77;15.10;;;24.90;59.70;;;;;;4932938;29;20478;-84
2023/06/09 07:55:08;;;;;;;18.97;14.07;;;25.00;59.30;;;;;;4897570;29;20455;-85
2023/06/09 07:57:35;;;;;;;14.20;12.70;;;25.20;59.60;;;;;;4903380;29;20512;-83
2023/06/09 08:00:06;;;;;;;16.67;13.47;;;25.40;59.40;;;;;;4929206;29;20450;-85
2023/06/09 08:02:42;;;;;;;16.57;13.23;;;25.20;58.70;;;;;;4922125;29;20446;-83
2023/06/09 08:05:09;;;;;;;11.13;10.03;;;25.30;59.50;;;;;;4902695;29;20441;-85
2023/06/09 08:07:37;;;;;;;12.67;11.37;;;25.30;56.00;;;;;;4905677;29;20469;-84
2023/06/09 08:10:05;;;;;;;12.00;10.80;;;25.40;58.70;;;;;;4929959;29;20473;-85
2023/06/09 08:12:32;;;;;;;13.80;10.57;;;25.50;58.80;;;;;;4931612;29;21072;-84
2023/06/09 08:14:59;;;;;;;12.30;10.90;;;25.40;57.50;;;;;;4930237;29;20518;-85
2023/06/09 08:17:28;;;;;;;11.97;10.90;;;25.50;57.80;;;;;;4932261;29;20849;-85
2023/06/09 08:19:54;;;;;;;11.53;10.43;;;25.60;56.60;;;;;;4929610;29;20481;-83
2023/06/09 08:22:21;;;;;;;13.00;9.93;;;25.80;57.60;;;;;;4915238;29;20477;-84
2023/06/09 08:24:48;;;;;;;10.37;9.37;;;25.60;56.80;;;;;;4905702;29;20459;-85
2023/06/09 08:27:15;;;;;;;11.33;10.23;;;25.50;55.20;;;;;;4922922;29;20466;-85
2023/06/09 08:29:42;;;;;;;10.60;9.60;;;25.70;57.50;;;;;;4916908;29;20474;-85
2023/06/09 08:32:09;;;;;;;9.37;7.40;;;26.10;57.10;;;;;;4920871;29;20447;-85
2023/06/09 08:34:38;;;;;;;7.53;6.83;;;26.40;55.70;;;;;;4922644;29;21240;-85
2023/06/09 08:37:05;;;;;;;8.63;7.83;;;26.30;51.70;;;;;;4921242;29;20486;-85
2023/06/09 08:39:32;;;;;;;7.70;7.00;;;26.40;54.40;;;;;;4921749;29;20472;-84
2023/06/09 08:42:02;;;;;;;8.40;7.60;;;26.40;52.20;;;;;;4914908;29;20974;-85
2023/06/09 08:44:29;;;;;;;8.10;6.90;;;26.60;52.90;;;;;;4918860;29;20454;-85
2023/06/09 08:47:02;;;;;;;7.13;6.20;;;26.40;51.70;;;;;;4929384;29;20491;-83
2023/06/09 08:49:30;;;;;;;9.10;6.47;;;26.30;51.20;;;;;;4939220;29;20478;-85
2023/06/09 08:52:00;;;;;;;7.10;6.40;;;26.20;50.70;;;;;;4939022;29;20446;-84
2023/06/09 08:54:27;;;;;;;7.57;6.97;;;26.30;52.80;;;;;;4950139;28;21038;-84
2023/06/09 08:56:54;;;;;;;6.10;5.60;;;26.70;54.70;;;;;;4934788;28;21884;-84
2023/06/09 08:59:30;;;;;;;7.00;6.30;;;27.00;49.80;;;;;;4943287;29;20457;-85
2023/06/09 09:01:59;;;;;;;7.07;6.47;;;27.10;50.70;;;;;;4935009;28;20451;-84
2023/06/09 09:04:26;;;;;;;6.50;5.90;;;27.40;50.50;;;;;;4937417;29;20508;-84
2023/06/09 09:06:54;;;;;;;7.60;5.43;;;27.50;48.60;;;;;;4921289;29;21082;-83
2023/06/09 09:09:22;;;;;;;6.47;5.87;;;27.40;46.50;;;;;;4918209;29;20453;-84
2023/06/09 09:11:52;;;;;;;6.23;5.73;;;27.50;47.60;;;;;;4918160;29;20462;-85
2023/06/09 09:14:19;;;;;;;8.97;6.10;;;27.30;47.20;;;;;;4927493;29;20461;-85
2023/06/09 09:16:46;;;;;;;8.13;6.30;;;27.50;49.70;;;;;;4927451;29;20537;-86
2023/06/09 09:19:13;;;;;;;7.20;6.60;;;27.50;48.30;;;;;;4935699;29;21028;-85
2023/06/09 09:21:40;;;;;;;7.00;6.40;;;27.40;48.60;;;;;;4907684;29;20525;-85
2023/06/09 09:24:11;;;;;;;7.00;6.30;;;27.60;47.80;;;;;;4904400;29;20742;-86
2023/06/09 09:26:40;;;;;;;6.73;6.23;;;27.90;48.70;;;;;;4910523;29;20487;-86
2023/06/09 09:29:08;;;;;;;7.23;6.63;;;28.10;45.40;;;;;;4917720;29;20466;-85
2023/06/09 09:31:41;;;;;;;6.90;5.37;;;28.40;47.00;;;;;;4922156;29;20492;-85
2023/06/09 09:34:12;;;;;;;6.20;5.70;;;28.40;44.80;;;;;;4936288;29;20979;-85
2023/06/09 09:36:42;;;;;;;7.60;5.30;;;28.50;46.60;;;;;;4907044;29;20467;-85
2023/06/09 09:39:09;;;;;;;7.03;6.33;;;28.50;44.70;;;;;;4924523;29;20839;-85
2023/06/09 09:41:36;;;;;;;8.73;5.60;;;28.60;45.00;;;;;;4911248;29;21003;-86
2023/06/09 09:44:06;;;;;;;5.17;4.77;;;28.70;45.10;;;;;;4933934;29;20462;-85
2023/06/09 09:46:37;;;;;;;6.57;5.90;;;28.80;42.30;;;;;;4936406;29;20461;-86
2023/06/09 09:49:05;;;;;;;6.40;5.77;;;28.70;44.90;;;;;;4926155;29;20455;-86
2023/06/09 09:51:34;;;;;;;6.07;5.50;;;29.00;42.80;;;;;;4935679;29;20474;-86
2023/06/09 09:54:01;;;;;;;6.67;6.07;;;29.20;43.60;;;;;;4932553;28;20901;-85
2023/06/09 09:56:29;;;;;;;6.50;5.40;;;29.30;43.40;;;;;;4936357;29;20478;-86
2023/06/09 09:58:56;;;;;;;5.87;5.40;;;29.60;41.60;;;;;;4921364;29;20450;-83
2023/06/09 10:01:25;;;;;;;5.83;5.27;;;29.70;43.20;;;;;;4934518;29;20453;-86
2023/06/09 10:03:54;;;;;;;6.30;5.70;;;29.60;40.90;;;;;;4920260;29;20494;-86
2023/06/09 10:06:27;;;;;;;5.37;4.97;;;29.60;43.70;;;;;;4936039;29;20455;-86
2023/06/09 10:08:55;;;;;;;5.67;5.07;;;29.90;42.10;;;;;;4933839;29;20450;-86
2023/06/09 10:11:23;;;;;;;6.40;5.80;;;30.00;40.20;;;;;;4927452;29;20473;-86
2023/06/09 10:13:51;;;;;;;6.50;5.57;;;30.10;40.40;;;;;;4926890;29;20533;-86
2023/06/09 10:16:19;;;;;;;6.10;5.50;;;30.20;41.00;;;;;;4934842;29;20455;-86
2023/06/09 10:18:48;;;;;;;5.07;4.67;;;30.10;42.30;;;;;;4925615;28;20474;-86
2023/06/09 10:21:15;;;;;;;6.23;5.67;;;30.20;41.50;;;;;;4924999;29;21946;-85
2023/06/09 10:23:43;;;;;;;5.70;5.20;;;30.20;42.30;;;;;;4909445;29;21076;-86
2023/06/09 10:26:10;;;;;;;5.57;5.07;;;30.00;40.80;;;;;;4935367;29;20919;-86
2023/06/09 10:28:38;;;;;;;5.70;5.20;;;30.30;42.50;;;;;;4916663;29;20482;-85
2023/06/09 10:31:07;;;;;;;6.20;5.00;;;30.50;39.10;;;;;;4930378;29;20467;-85
2023/06/09 10:33:38;;;;;;;7.40;5.33;;;30.50;43.00;;;;;;4935577;29;21022;-85
2023/06/09 10:36:08;;;;;;;10.27;5.00;;;30.70;37.80;;;;;;4923081;29;20549;-86
2023/06/09 10:38:41;;;;;;;5.80;5.10;;;30.90;35.40;;;;;;4920990;29;20474;-86
2023/06/09 10:41:11;;;;;;;6.47;4.87;;;30.90;36.80;;;;;;4920894;29;20477;-85
2023/06/09 10:44:09;;;;;;;5.23;4.73;;;31.10;37.60;;;;;;4935423;29;20437;-86
2023/06/09 10:46:42;;;;;;;4.80;4.50;;;30.80;39.00;;;;;;4892875;28;20559;-86
2023/06/09 10:49:36;;;;;;;5.30;4.57;;;30.90;38.40;;;;;;4920306;29;20872;-85
2023/06/09 10:52:05;;;;;;;4.87;4.47;;;31.00;37.20;;;;;;4906284;28;20485;-86
2023/06/09 10:54:35;;;;;;;5.30;4.90;;;31.20;37.90;;;;;;4922952;29;20517;-86
2023/06/09 10:57:03;;;;;;;4.90;4.47;;;31.40;36.50;;;;;;4918451;29;20473;-86
2023/06/09 10:59:55;;;;;;;10.10;6.07;;;31.40;36.50;;;;;;4934455;28;20455;-86
2023/06/09 11:02:22;;;;;;;8.10;6.13;;;31.10;37.00;;;;;;4929540;29;20530;-87
2023/06/09 11:04:52;;;;;;;5.97;5.47;;;30.90;37.00;;;;;;4905405;29;20471;-85
2023/06/09 11:07:22;;;;;;;4.87;4.47;;;30.80;38.30;;;;;;4923750;29;20462;-87
2023/06/09 11:10:35;;;;;;;7.60;4.73;;;30.80;38.10;;;;;;4900001;29;20475;-85
2023/06/09 11:13:04;;;;;;;6.50;5.50;;;31.00;38.80;;;;;;4899033;29;20454;-87
2023/06/09 11:16:00;;;;;;;6.70;6.10;;;31.20;37.70;;;;;;4920362;29;20557;-85
2023/06/09 11:18:28;;;;;;;5.97;5.47;;;31.20;37.20;;;;;;4900154;29;20484;-84
2023/06/09 11:21:09;;;;;;;5.70;5.20;;;31.40;36.90;;;;;;4923678;29;20447;-86
2023/06/09 11:24:04;;;;;;;8.13;5.03;;;31.40;37.50;;;;;;4916608;29;20489;-85
2023/06/09 11:26:33;;;;;;;5.80;5.30;;;31.30;36.50;;;;;;4932157;29;20505;-87
2023/06/09 11:29:03;;;;;;;5.80;5.40;;;31.60;36.30;;;;;;4915628;29;20450;-85
2023/06/09 11:31:46;;;;;;;6.60;6.00;;;31.90;36.10;;;;;;4921512;29;20474;-86
2023/06/09 11:34:52;;;;;;;5.17;4.80;;;31.80;34.40;;;;;;4929716;29;20455;-86
2023/06/09 11:37:20;;;;;;;6.93;6.23;;;32.10;34.80;;;;;;4929697;29;20470;-86
2023/06/09 11:39:49;;;;;;;6.07;5.57;;;31.80;34.40;;;;;;4929538;29;20458;-87
2023/06/09 11:42:17;;;;;;;5.60;5.10;;;31.80;33.60;;;;;;4900381;29;20485;-86
2023/06/09 11:44:44;;;;;;;6.13;5.53;;;31.90;34.10;;;;;;4917516;29;20457;-87
2023/06/09 11:47:25;;;;;;;8.07;5.97;;;31.80;33.80;;;;;;4916213;29;20551;-86
2023/06/09 11:50:00;;;;;;;6.73;5.77;;;31.90;33.70;;;;;;4929459;29;20450;-86
2023/06/09 11:52:27;;;;;;;6.23;5.67;;;31.90;32.40;;;;;;4928976;28;21264;-86
2023/06/09 11:54:55;;;;;;;6.20;5.70;;;32.00;32.90;;;;;;4916834;29;20459;-86
2023/06/09 11:57:23;;;;;;;7.10;6.20;;;32.10;35.10;;;;;;4906749;29;20566;-85
2023/06/09 11:59:50;;;;;;;6.07;5.57;;;32.30;32.50;;;;;;4920313;29;20439;-84
2023/06/09 12:02:18;;;;;;;6.30;5.70;;;32.00;34.00;;;;;;4929743;29;20873;-85
2023/06/09 12:04:45;;;;;;;5.63;5.13;;;32.00;31.30;;;;;;4928710;29;20462;-86
2023/06/09 12:07:14;;;;;;;5.77;5.27;;;32.10;32.00;;;;;;4914348;29;20471;-86
2023/06/09 12:09:42;;;;;;;5.70;5.20;;;32.40;31.40;;;;;;4929698;29;20458;-86
2023/06/09 12:12:11;;;;;;;5.87;5.30;;;32.60;30.90;;;;;;4904008;29;20502;-85
2023/06/09 12:14:39;;;;;;;6.20;5.70;;;32.70;29.70;;;;;;4917885;29;20466;-87
2023/06/09 12:17:06;;;;;;;6.10;5.63;;;32.60;30.80;;;;;;4894577;29;20620;-86
2023/06/09 12:19:33;;;;;;;6.07;5.57;;;32.70;30.90;;;;;;4930848;29;20458;-85
2023/06/09 12:22:03;;;;;;;6.70;6.10;;;32.90;33.10;;;;;;4912660;29;20450;-86
2023/06/09 12:24:31;;;;;;;5.80;5.30;;;33.20;31.70;;;;;;4918515;29;20536;-86
2023/06/09 12:27:09;;;;;;;5.93;5.43;;;33.60;31.00;;;;;;4929928;28;20479;-86
2023/06/09 12:29:38;;;;;;;6.60;6.10;;;33.40;29.60;;;;;;4934606;29;20454;-86
2023/06/09 12:32:08;;;;;;;7.53;6.83;;;33.20;30.00;;;;;;4929159;29;20481;-86
2023/06/09 12:34:35;;;;;;;6.77;6.13;;;33.10;30.70;;;;;;4915077;29;20454;-86
2023/06/09 12:37:05;;;;;;;6.23;5.73;;;33.00;29.70;;;;;;4912680;29;20466;-87
2023/06/09 12:39:33;;;;;;;6.10;5.70;;;32.90;29.70;;;;;;4932195;29;20450;-85
2023/06/09 12:42:11;;;;;;;6.70;6.07;;;33.10;31.20;;;;;;4905850;29;20966;-86
2023/06/09 12:44:39;;;;;;;5.80;5.40;;;33.40;29.50;;;;;;4914715;29;20454;-87